Pagrindinis puslapis
METAR-TAF:

METAR-TAF

Oro uostai :

Ambatas, Ekvadoras

platuma: 01-12-43S, ilguma: 078-34-28W, Aukštis: 2591 m

Dabartinis oras

Ataskaita buvo paskelbta 14 valandos ir 54 minutes, ne 19:00 UTC
Ramus vėjas
Temperatūra 21°C
Drėgmė 49%
Slėgis 1024 hPa
Matomumas 10 km arba daugiau
Išsisklaidę debesys ne aukštis 2000 ft
Su prošvaistėmis ne aukštis 10000 ft

METAR: SEAM 151900Z 00000KT 9999 SCT020 BKN100 21/10 Q1024

Laikas: 04:54 (09:54 UTC)


TAF: trūkstamas

Orai ataskaitas ir orų prognozės (METAR, TAF).

turimą stotys yra geltonos ir raudonos taškus žemėlapyje.

Perkelti pele per norėdami pamatyti stoties vardą.

Tada spustelėkite, norėdami matyti oro stebėjimo ir prognozės.

Norėdami pakeisti žemėlapį: spustelėkite ant žalios mygtukų su juodo kryžiaus žemyn,; žalią mygtuką su brūkšneliu, jei norite nutolinti; arba žalių rodyklių gretimoms žemėlapius.


METAR-TAF: